createdAt,value
2018-05-13T00:01:45.979Z,14.20
2018-05-13T00:04:22.848Z,14.20
2018-05-13T00:06:57.103Z,14.10
2018-05-13T00:09:32.674Z,14.00
2018-05-13T00:12:07.515Z,13.90
2018-05-13T00:14:42.513Z,14.00
2018-05-13T00:17:16.435Z,13.90
2018-05-13T00:19:51.408Z,13.80
2018-05-13T00:22:26.047Z,13.70
2018-05-13T00:25:00.014Z,13.70
2018-05-13T00:27:34.272Z,13.70
2018-05-13T00:30:08.258Z,13.50
2018-05-13T00:32:43.181Z,13.50
2018-05-13T00:35:17.395Z,13.40
2018-05-13T00:37:51.218Z,13.30
2018-05-13T00:40:25.933Z,13.30
2018-05-13T00:43:00.634Z,13.20
2018-05-13T00:45:35.294Z,13.20
2018-05-13T00:48:10.148Z,13.20
2018-05-13T00:50:44.870Z,13.30
2018-05-13T00:53:19.238Z,13.20
2018-05-13T00:55:53.686Z,13.10
2018-05-13T00:58:27.552Z,13.00
2018-05-13T01:01:02.274Z,12.90
2018-05-13T01:03:36.114Z,12.90
2018-05-13T01:06:10.902Z,13.10
2018-05-13T01:08:45.476Z,13.10
2018-05-13T01:11:20.224Z,13.00
2018-05-13T01:13:55.532Z,13.00
2018-05-13T01:16:30.283Z,13.10
2018-05-13T01:19:04.367Z,13.10
2018-05-13T01:21:39.210Z,13.00
2018-05-13T01:24:13.248Z,13.00
2018-05-13T01:26:46.936Z,13.00
2018-05-13T01:29:22.286Z,12.70
2018-05-13T01:31:57.073Z,12.70
2018-05-13T01:34:31.698Z,12.70
2018-05-13T01:37:05.238Z,12.70
2018-05-13T01:39:39.900Z,12.90
2018-05-13T01:42:15.878Z,12.80
2018-05-13T01:44:50.590Z,12.70
2018-05-13T01:47:25.131Z,12.50
2018-05-13T01:50:00.465Z,12.50
2018-05-13T01:52:35.096Z,12.50
2018-05-13T01:55:09.953Z,12.50
2018-05-13T01:57:43.727Z,12.60
2018-05-13T02:00:18.274Z,12.60
2018-05-13T02:02:52.255Z,12.60
2018-05-13T02:05:26.884Z,12.90
2018-05-13T02:08:01.300Z,12.90
2018-05-13T02:10:35.256Z,13.00
2018-05-13T02:13:09.124Z,13.00
2018-05-13T02:15:43.755Z,12.90
2018-05-13T02:18:17.653Z,13.00
2018-05-13T02:20:51.265Z,12.90
2018-05-13T02:23:25.787Z,13.10
2018-05-13T02:25:59.522Z,13.10
2018-05-13T02:28:34.106Z,13.10
2018-05-13T02:31:07.964Z,13.00
2018-05-13T02:33:42.230Z,13.00
2018-05-13T02:36:16.928Z,12.90
2018-05-13T02:38:51.503Z,13.00
2018-05-13T02:41:26.088Z,13.10
2018-05-13T02:44:00.774Z,13.10
2018-05-13T02:46:34.663Z,13.00
2018-05-13T02:49:08.507Z,13.00
2018-05-13T02:51:42.939Z,13.10
2018-05-13T02:54:16.847Z,13.10
2018-05-13T02:56:51.470Z,13.30
2018-05-13T02:59:26.089Z,13.30
2018-05-13T03:02:02.358Z,13.30
2018-05-13T03:04:37.183Z,13.40
2018-05-13T03:07:11.807Z,13.40
2018-05-13T03:09:46.415Z,13.40
2018-05-13T03:12:21.280Z,13.40
2018-05-13T03:14:54.876Z,13.40
2018-05-13T03:30:20.243Z,14.00
2018-05-13T03:32:55.233Z,14.10
2018-05-13T03:35:29.800Z,14.00
2018-05-13T03:38:05.788Z,13.90
2018-05-13T03:40:39.924Z,14.00
2018-05-13T03:43:14.827Z,13.90
2018-05-13T03:45:48.450Z,13.90
2018-05-13T03:48:22.517Z,13.90
2018-05-13T03:50:56.838Z,13.90
2018-05-13T03:53:31.231Z,14.00
2018-05-13T03:56:05.895Z,14.00
2018-05-13T03:58:40.615Z,14.10
2018-05-13T04:01:15.652Z,14.10
2018-05-13T04:03:51.068Z,14.00
2018-05-13T04:06:24.892Z,14.00
2018-05-13T04:09:11.782Z,14.00
2018-05-13T04:11:57.444Z,14.10
2018-05-13T04:14:44.087Z,14.00
2018-05-13T04:17:18.502Z,14.00
2018-05-13T04:19:52.583Z,14.00
2018-05-13T04:22:27.051Z,13.90
2018-05-13T04:25:00.882Z,13.90
2018-05-13T04:27:35.142Z,13.90
2018-05-13T04:30:08.771Z,14.00
2018-05-13T04:32:43.682Z,13.90
2018-05-13T04:35:18.218Z,13.90
2018-05-13T04:37:52.049Z,13.80
2018-05-13T04:40:26.371Z,13.90
2018-05-13T04:43:01.070Z,14.00
2018-05-13T04:45:35.725Z,14.00
2018-05-13T04:48:10.498Z,14.10
2018-05-13T04:50:45.130Z,14.20
2018-05-13T04:53:19.638Z,14.30
2018-05-13T04:55:54.694Z,14.30
2018-05-13T04:58:29.415Z,14.50
2018-05-13T05:01:03.029Z,14.40
2018-05-13T05:03:36.819Z,14.50
2018-05-13T05:06:10.707Z,14.50
2018-05-13T05:08:44.710Z,14.50
2018-05-13T05:11:18.342Z,14.60
2018-05-13T05:13:53.785Z,14.70
2018-05-13T05:16:28.796Z,14.90
2018-05-13T05:19:02.667Z,14.90
2018-05-13T05:21:36.479Z,15.00
2018-05-13T05:24:11.250Z,15.00
2018-05-13T05:26:45.539Z,15.00
2018-05-13T05:29:19.563Z,15.00
2018-05-13T05:31:53.686Z,15.10
2018-05-13T05:34:28.218Z,15.40
2018-05-13T05:37:02.881Z,15.50
2018-05-13T05:39:38.076Z,15.50
2018-05-13T05:42:13.320Z,15.60
2018-05-13T05:44:48.059Z,15.80
2018-05-13T05:47:22.900Z,16.00
2018-05-13T05:49:57.574Z,16.00
2018-05-13T05:52:32.218Z,16.10
2018-05-13T05:55:06.003Z,16.10
2018-05-13T05:57:40.725Z,16.50
2018-05-13T06:00:15.276Z,16.60
2018-05-13T06:02:48.867Z,16.60
2018-05-13T06:05:22.878Z,16.90
2018-05-13T06:07:56.879Z,17.20
2018-05-13T06:10:32.631Z,17.40
2018-05-13T06:13:06.435Z,17.40
2018-05-13T06:15:41.114Z,16.60
2018-05-13T06:18:15.985Z,16.40
2018-05-13T06:20:49.743Z,16.40
2018-05-13T06:23:24.929Z,16.50
2018-05-13T06:25:58.642Z,16.50
2018-05-13T06:28:32.567Z,16.80
2018-05-13T06:31:06.235Z,17.10
2018-05-13T06:33:40.849Z,16.80
2018-05-13T06:36:14.785Z,16.80
2018-05-13T06:38:50.201Z,17.10
2018-05-13T06:41:25.324Z,17.40
2018-05-13T06:43:59.999Z,17.50
2018-05-13T06:46:35.018Z,17.40
2018-05-13T06:49:10.429Z,17.40
2018-05-13T06:51:45.238Z,17.70
2018-05-13T06:54:19.789Z,17.50
2018-05-13T06:56:54.934Z,17.50
2018-05-13T06:59:28.632Z,17.50
2018-05-13T07:02:03.752Z,18.20
2018-05-13T07:04:37.550Z,18.10
2018-05-13T07:07:11.354Z,18.00
2018-05-13T07:09:45.794Z,17.70
2018-05-13T07:12:19.642Z,17.70
2018-05-13T07:14:53.774Z,18.30
2018-05-13T07:17:28.149Z,18.50
2018-05-13T07:20:02.924Z,18.50
2018-05-13T07:22:37.882Z,18.90
2018-05-13T07:25:12.601Z,19.00
2018-05-13T07:27:47.331Z,19.40
2018-05-13T07:30:22.258Z,19.50
2018-05-13T07:32:56.232Z,19.40
2018-05-13T07:35:29.842Z,19.40
2018-05-13T07:38:04.911Z,19.50
2018-05-13T07:40:39.327Z,19.40
2018-05-13T07:43:14.356Z,19.40
2018-05-13T07:45:47.987Z,19.30
2018-05-13T07:48:21.576Z,19.10
2018-05-13T07:50:56.424Z,18.80
2018-05-13T07:53:30.939Z,18.70
2018-05-13T07:56:05.940Z,18.70
2018-05-13T07:58:40.697Z,18.70
2018-05-13T08:01:15.611Z,18.80
2018-05-13T08:03:49.392Z,18.80
2018-05-13T08:06:24.431Z,19.10
2018-05-13T08:08:59.126Z,19.10
2018-05-13T08:11:33.054Z,19.10
2018-05-13T08:14:06.994Z,19.20
2018-05-13T08:16:41.702Z,19.00
2018-05-13T08:19:15.873Z,19.00
2018-05-13T08:21:50.461Z,19.50
2018-05-13T08:24:25.836Z,19.60
2018-05-13T08:27:00.215Z,19.40
2018-05-13T08:29:35.135Z,19.40
2018-05-13T08:32:08.848Z,19.40
2018-05-13T08:34:42.654Z,19.10
2018-05-13T08:37:17.304Z,18.40
2018-05-13T08:39:51.189Z,18.40
2018-05-13T08:42:25.892Z,18.10
2018-05-13T08:45:00.439Z,18.00
2018-05-13T08:47:35.255Z,18.00
2018-05-13T08:50:09.896Z,18.00
2018-05-13T08:52:46.062Z,18.00
2018-05-13T08:55:21.667Z,18.10
2018-05-13T08:57:56.003Z,18.30
2018-05-13T09:00:29.896Z,18.20
2018-05-13T09:03:04.687Z,18.50
2018-05-13T09:05:39.147Z,18.60
2018-05-13T09:08:12.930Z,18.70
2018-05-13T09:10:47.291Z,18.30
2018-05-13T09:13:21.078Z,18.30
2018-05-13T09:15:54.890Z,18.50
2018-05-13T09:18:29.049Z,18.40
2018-05-13T09:21:02.950Z,18.20
2018-05-13T09:23:36.769Z,18.00
2018-05-13T09:26:11.395Z,17.80
2018-05-13T09:28:45.440Z,17.80
2018-05-13T09:31:19.302Z,18.00
2018-05-13T09:33:53.258Z,18.00
2018-05-13T09:36:27.109Z,17.60
2018-05-13T09:39:01.723Z,17.50
2018-05-13T09:41:36.423Z,17.50
2018-05-13T09:44:11.745Z,17.30
2018-05-13T09:46:46.262Z,17.20
2018-05-13T09:49:20.811Z,17.20
2018-05-13T09:51:54.698Z,17.20
2018-05-13T09:54:28.384Z,17.20
2018-05-13T09:57:02.833Z,17.50
2018-05-13T09:59:37.308Z,17.50
2018-05-13T10:02:11.753Z,17.50
2018-05-13T10:04:46.498Z,17.50
2018-05-13T10:07:20.201Z,17.50
2018-05-13T10:09:54.239Z,17.40
2018-05-13T10:12:28.871Z,17.60
2018-05-13T10:15:02.683Z,17.50
2018-05-13T10:17:37.400Z,17.50
2018-05-13T10:20:11.762Z,17.50
2018-05-13T10:22:47.007Z,17.40
2018-05-13T10:25:20.858Z,17.40
2018-05-13T10:27:55.297Z,17.60
2018-05-13T10:30:28.971Z,17.80
2018-05-13T10:33:03.472Z,18.00
2018-05-13T10:35:37.367Z,18.00
2018-05-13T10:38:11.887Z,17.70
2018-05-13T10:40:46.831Z,17.60
2018-05-13T10:43:21.247Z,17.60
2018-05-13T10:45:55.155Z,17.60
2018-05-13T10:48:30.277Z,17.80
2018-05-13T10:51:06.141Z,18.00
2018-05-13T10:53:41.674Z,17.90
2018-05-13T10:56:17.098Z,17.70
2018-05-13T10:58:51.699Z,17.70
2018-05-13T11:01:26.364Z,17.70
2018-05-13T11:04:01.681Z,17.80
2018-05-13T11:06:36.173Z,17.90
2018-05-13T11:09:10.630Z,17.90
2018-05-13T11:11:45.492Z,17.90
2018-05-13T11:14:20.316Z,17.80
2018-05-13T11:16:56.504Z,17.80
2018-05-13T11:19:32.950Z,17.70
2018-05-13T11:22:07.391Z,17.70
2018-05-13T11:24:42.788Z,17.90
2018-05-13T11:27:17.091Z,17.80
2018-05-13T11:29:52.485Z,17.80
2018-05-13T11:32:28.932Z,17.90
2018-05-13T11:35:03.438Z,17.90
2018-05-13T11:37:37.754Z,18.00
2018-05-13T11:40:12.270Z,17.90
2018-05-13T11:42:47.429Z,18.20
2018-05-13T11:45:24.662Z,18.20
2018-05-13T11:47:59.314Z,18.20
2018-05-13T11:50:35.491Z,18.30
2018-05-13T11:53:09.912Z,18.20
2018-05-13T11:55:45.247Z,18.30
2018-05-13T11:58:18.954Z,18.30
2018-05-13T12:00:53.772Z,18.30
2018-05-13T12:03:28.488Z,18.10
2018-05-13T12:06:03.426Z,18.60
2018-05-13T12:08:37.841Z,18.80
2018-05-13T12:11:12.887Z,19.40
2018-05-13T12:13:46.906Z,19.40
2018-05-13T12:16:20.670Z,19.90
2018-05-13T12:18:55.137Z,20.70
2018-05-13T12:21:30.285Z,20.90
2018-05-13T12:24:04.666Z,20.90
2018-05-13T12:26:38.283Z,20.20
2018-05-13T12:29:12.480Z,20.20
2018-05-13T12:31:47.073Z,19.80
2018-05-13T12:34:20.715Z,19.80
2018-05-13T12:36:55.547Z,20.30
2018-05-13T12:39:29.346Z,20.30
2018-05-13T12:42:04.228Z,20.00
2018-05-13T12:44:38.676Z,20.70
2018-05-13T12:47:13.885Z,21.50
2018-05-13T12:49:47.926Z,21.40
2018-05-13T12:52:23.278Z,20.30
2018-05-13T12:54:57.386Z,20.30
2018-05-13T12:57:32.815Z,22.40
2018-05-13T13:00:07.639Z,22.40
2018-05-13T13:02:42.802Z,21.80
2018-05-13T13:05:17.508Z,21.70
2018-05-13T13:07:52.541Z,21.50
2018-05-13T13:10:26.532Z,21.70
2018-05-13T13:13:00.290Z,20.00
2018-05-13T13:15:35.280Z,20.50
2018-05-13T13:18:09.087Z,21.00
2018-05-13T13:20:43.282Z,22.20
2018-05-13T13:23:16.884Z,21.60
2018-05-13T13:25:50.455Z,21.10
2018-05-13T13:28:25.190Z,20.00
2018-05-13T13:31:00.049Z,20.30
2018-05-13T13:33:35.007Z,20.10
2018-05-13T13:36:09.820Z,20.50
2018-05-13T13:38:44.139Z,20.50
2018-05-13T13:41:20.174Z,21.30
2018-05-13T13:43:55.537Z,21.20
2018-05-13T13:46:29.327Z,21.20
2018-05-13T13:49:04.367Z,20.90
2018-05-13T13:51:38.386Z,20.40
2018-05-13T13:54:12.690Z,20.30
2018-05-13T13:56:47.544Z,20.80
2018-05-13T13:59:21.688Z,20.80
2018-05-13T14:01:55.336Z,20.60
2018-05-13T14:04:29.138Z,21.10
2018-05-13T14:07:03.918Z,20.80
2018-05-13T14:09:37.683Z,21.00
2018-05-13T14:12:11.481Z,21.30
2018-05-13T14:14:46.831Z,20.70
2018-05-13T14:17:20.754Z,20.70
2018-05-13T14:19:56.279Z,20.40
2018-05-13T14:22:30.771Z,20.00
2018-05-13T14:25:04.491Z,20.00
2018-05-13T14:27:38.222Z,19.90
2018-05-13T14:30:12.006Z,19.50
2018-05-13T14:32:45.719Z,19.10
2018-05-13T14:35:21.050Z,19.20
2018-05-13T14:37:55.635Z,19.10
2018-05-13T14:40:32.914Z,19.10
2018-05-13T14:43:07.884Z,19.20
2018-05-13T14:45:43.128Z,19.20
2018-05-13T14:48:16.918Z,19.30
2018-05-13T14:50:51.755Z,19.30
2018-05-13T14:53:26.512Z,19.20
2018-05-13T14:56:00.695Z,19.20
2018-05-13T14:58:35.734Z,19.20
2018-05-13T15:01:09.651Z,19.10
2018-05-13T15:03:45.195Z,19.00
2018-05-13T15:06:19.074Z,18.60
2018-05-13T15:08:54.127Z,18.00
2018-05-13T15:11:28.119Z,17.60
2018-05-13T15:14:02.142Z,17.40
2018-05-13T15:16:36.621Z,17.20
2018-05-13T15:19:11.826Z,17.20
2018-05-13T15:21:45.937Z,17.10
2018-05-13T15:24:19.837Z,17.10
2018-05-13T15:26:55.750Z,17.20
2018-05-13T15:29:29.480Z,17.20
2018-05-13T15:32:05.319Z,17.40
2018-05-13T15:34:39.512Z,17.40
2018-05-13T15:37:14.819Z,17.40
2018-05-13T15:39:48.594Z,17.40
2018-05-13T15:42:24.204Z,17.40
2018-05-13T15:44:58.051Z,17.40
2018-05-13T15:47:32.634Z,17.40
2018-05-13T15:50:06.551Z,17.30
2018-05-13T16:05:46.656Z,16.90
2018-05-13T16:08:21.536Z,16.90
2018-05-13T16:10:55.917Z,16.90
2018-05-13T16:13:30.030Z,16.80
2018-05-13T16:16:04.509Z,16.80
2018-05-13T16:18:38.260Z,16.80
2018-05-13T16:21:13.417Z,16.90
2018-05-13T16:23:47.942Z,16.90
2018-05-13T16:26:23.037Z,17.10
2018-05-13T16:28:57.605Z,17.00
2018-05-13T16:31:31.651Z,17.00
2018-05-13T16:34:05.484Z,16.80
2018-05-13T16:36:39.188Z,16.80
2018-05-13T16:39:13.812Z,16.60
2018-05-13T16:41:48.266Z,16.40
2018-05-13T16:44:23.917Z,16.40
2018-05-13T16:46:58.426Z,16.40
2018-05-13T17:02:33.081Z,15.80
2018-05-13T17:05:07.618Z,15.60
2018-05-13T17:07:42.490Z,15.70
2018-05-13T17:10:16.636Z,15.70
2018-05-13T17:12:51.803Z,15.70
2018-05-13T17:15:26.838Z,15.50
2018-05-13T17:18:01.589Z,15.40
2018-05-13T17:20:37.112Z,15.20
2018-05-13T17:23:12.274Z,15.10
2018-05-13T17:25:46.526Z,15.10
2018-05-13T17:28:21.419Z,15.30
2018-05-13T17:30:55.750Z,15.20
2018-05-13T17:33:29.523Z,15.20
2018-05-13T17:36:04.236Z,15.20
2018-05-13T17:38:38.699Z,15.20
2018-05-13T17:41:13.801Z,15.20
2018-05-13T17:43:48.755Z,15.10
2018-05-13T17:46:23.053Z,15.00
2018-05-13T17:48:57.571Z,15.10
2018-05-13T17:51:31.578Z,15.10
2018-05-13T17:54:05.495Z,15.00
2018-05-13T17:56:39.406Z,15.00
2018-05-13T17:59:14.577Z,15.20
2018-05-13T18:01:48.438Z,15.10
2018-05-13T18:04:23.882Z,15.20
2018-05-13T18:06:58.583Z,15.00
2018-05-13T18:09:33.631Z,14.90
2018-05-13T18:12:08.706Z,14.90
2018-05-13T18:14:44.043Z,14.90
2018-05-13T18:17:18.715Z,14.60
2018-05-13T18:19:54.484Z,14.40
2018-05-13T18:22:29.525Z,14.30
2018-05-13T18:25:04.772Z,14.30
2018-05-13T18:27:39.191Z,14.20
2018-05-13T18:30:14.328Z,14.10
2018-05-13T18:32:48.313Z,14.20
2018-05-13T18:35:23.876Z,14.00
2018-05-13T18:37:57.962Z,14.00
2018-05-13T18:40:33.442Z,13.80
2018-05-13T18:43:07.247Z,13.70
2018-05-13T18:45:42.044Z,13.70
2018-05-13T18:48:15.890Z,13.70
2018-05-13T18:50:49.655Z,13.70
2018-05-13T18:53:24.362Z,13.50
2018-05-13T18:55:58.344Z,13.50
2018-05-13T18:58:35.388Z,13.70
2018-05-13T19:01:10.155Z,13.70
2018-05-13T19:03:46.440Z,13.60
2018-05-13T19:06:21.417Z,13.50
2018-05-13T19:08:55.803Z,13.40
2018-05-13T19:11:29.644Z,13.30
2018-05-13T19:14:04.163Z,13.00
2018-05-13T19:16:39.808Z,13.00
2018-05-13T19:19:14.645Z,13.00
2018-05-13T19:21:48.847Z,13.00
2018-05-13T19:24:24.791Z,13.00
2018-05-13T19:26:58.693Z,13.00
2018-05-13T19:29:33.650Z,12.90
2018-05-13T19:32:08.662Z,12.90
2018-05-13T19:34:43.804Z,12.80
2018-05-13T19:37:18.364Z,12.80
2018-05-13T19:39:53.083Z,12.70
2018-05-13T19:42:26.762Z,12.70
2018-05-13T19:45:01.566Z,12.70
2018-05-13T19:47:35.763Z,12.70
2018-05-13T19:50:10.219Z,12.80
2018-05-13T19:52:46.880Z,12.80
2018-05-13T19:55:21.723Z,12.90
2018-05-13T19:57:55.902Z,12.90
2018-05-13T20:00:30.980Z,12.80
2018-05-13T20:03:05.921Z,12.70
2018-05-13T20:05:40.088Z,12.70
2018-05-13T20:08:15.721Z,12.60
2018-05-13T20:10:50.082Z,12.60
2018-05-13T20:13:25.759Z,12.60
2018-05-13T20:16:00.836Z,12.60
2018-05-13T20:18:34.883Z,12.60
2018-05-13T20:21:09.663Z,12.60
2018-05-13T20:23:44.124Z,12.60
2018-05-13T20:26:18.742Z,12.50
2018-05-13T20:28:53.768Z,12.50
2018-05-13T20:31:27.835Z,12.50
2018-05-13T20:34:02.085Z,12.50
2018-05-13T20:36:36.419Z,12.50
2018-05-13T20:39:12.166Z,12.50
2018-05-13T20:41:46.776Z,12.50
2018-05-13T20:44:21.666Z,12.50
2018-05-13T20:46:56.518Z,12.50
2018-05-13T20:49:30.968Z,12.50
2018-05-13T20:52:06.181Z,12.40
2018-05-13T20:54:39.786Z,12.40
2018-05-13T20:57:14.591Z,12.40
2018-05-13T20:59:49.106Z,12.50
2018-05-13T21:02:24.368Z,12.60
2018-05-13T21:04:58.512Z,12.60
2018-05-13T21:07:34.245Z,12.60
2018-05-13T21:10:10.098Z,12.60
2018-05-13T21:12:45.705Z,12.60
2018-05-13T21:15:19.958Z,12.70
2018-05-13T21:17:54.407Z,12.70
2018-05-13T21:20:28.818Z,12.70
2018-05-13T21:23:03.573Z,12.70
2018-05-13T21:25:37.746Z,12.80
2018-05-13T21:28:13.168Z,12.80
2018-05-13T21:30:48.585Z,12.70
2018-05-13T21:33:23.250Z,12.70
2018-05-13T21:35:57.878Z,12.70
2018-05-13T21:38:33.727Z,12.80
2018-05-13T21:41:09.586Z,12.80
2018-05-13T21:43:45.189Z,12.80
2018-05-13T21:46:18.998Z,12.70
2018-05-13T21:48:55.500Z,12.80
2018-05-13T21:51:29.408Z,12.80
2018-05-13T21:54:05.169Z,12.70
2018-05-13T21:56:39.287Z,12.70
2018-05-13T21:59:14.807Z,12.70
2018-05-13T22:01:48.506Z,12.70
2018-05-13T22:04:22.653Z,12.80
2018-05-13T22:06:56.629Z,12.80
2018-05-13T22:09:31.079Z,12.60
2018-05-13T22:12:05.306Z,12.60
2018-05-13T22:14:39.291Z,12.60
2018-05-13T22:17:14.111Z,12.40
2018-05-13T22:19:48.419Z,12.40
2018-05-13T22:22:23.867Z,12.40
2018-05-13T22:24:58.596Z,12.40
2018-05-13T22:27:34.531Z,12.40
2018-05-13T22:30:09.470Z,12.40
2018-05-13T22:32:43.823Z,12.40
2018-05-13T22:35:17.804Z,12.40
2018-05-13T22:37:51.517Z,12.40
2018-05-13T22:40:27.632Z,12.40
2018-05-13T22:43:02.098Z,12.40
2018-05-13T22:45:36.824Z,12.40
2018-05-13T22:48:11.749Z,12.40
2018-05-13T22:50:46.171Z,12.40
2018-05-13T22:53:20.983Z,12.40
2018-05-13T22:55:55.531Z,12.40
2018-05-13T22:58:29.577Z,12.50
2018-05-13T23:01:05.493Z,12.60
2018-05-13T23:03:40.164Z,12.60
2018-05-13T23:06:14.314Z,12.60
2018-05-13T23:08:48.313Z,12.60
2018-05-13T23:11:23.269Z,12.60
2018-05-13T23:13:57.661Z,12.60
2018-05-13T23:16:32.399Z,12.60
2018-05-13T23:19:06.322Z,12.70
2018-05-13T23:21:40.183Z,12.70
2018-05-13T23:24:14.316Z,12.60
2018-05-13T23:26:48.121Z,12.60
2018-05-13T23:29:22.575Z,12.50
2018-05-13T23:31:59.019Z,12.50
2018-05-13T23:34:33.618Z,12.60
2018-05-13T23:37:07.543Z,12.50
2018-05-13T23:39:42.619Z,12.60
2018-05-13T23:42:16.296Z,12.50
2018-05-13T23:44:51.751Z,12.60
2018-05-13T23:47:25.735Z,12.60
2018-05-13T23:49:59.726Z,12.80
2018-05-13T23:52:33.542Z,12.80
2018-05-13T23:55:08.079Z,12.90
2018-05-13T23:57:42.564Z,12.80
